sensor_id;sensor_type;location;lat;lon;timestamp;P1;durP1;ratioP1;P2;durP2;ratioP2
7621;SDS011;3852;52.284;8.032;2022-08-02T00:01:33;5.43;;;3.17;;
7621;SDS011;3852;52.284;8.032;2022-08-02T00:03:58;3.87;;;3.20;;
7621;SDS011;3852;52.284;8.032;2022-08-02T00:06:24;8.23;;;3.57;;
7621;SDS011;3852;52.284;8.032;2022-08-02T00:08:52;5.57;;;3.57;;
7621;SDS011;3852;52.284;8.032;2022-08-02T00:11:18;4.93;;;3.77;;
7621;SDS011;3852;52.284;8.032;2022-08-02T00:13:44;4.67;;;3.80;;
7621;SDS011;3852;52.284;8.032;2022-08-02T00:16:10;6.10;;;3.60;;
7621;SDS011;3852;52.284;8.032;2022-08-02T00:18:37;7.97;;;4.07;;
7621;SDS011;3852;52.284;8.032;2022-08-02T00:21:03;5.53;;;3.80;;
7621;SDS011;3852;52.284;8.032;2022-08-02T00:23:28;5.30;;;3.73;;
7621;SDS011;3852;52.284;8.032;2022-08-02T00:25:54;6.90;;;3.80;;
7621;SDS011;3852;52.284;8.032;2022-08-02T00:28:20;6.13;;;4.13;;
7621;SDS011;3852;52.284;8.032;2022-08-02T00:30:46;4.90;;;3.97;;
7621;SDS011;3852;52.284;8.032;2022-08-02T00:33:12;5.53;;;3.80;;
7621;SDS011;3852;52.284;8.032;2022-08-02T00:35:38;5.70;;;4.10;;
7621;SDS011;3852;52.284;8.032;2022-08-02T00:38:03;6.60;;;4.20;;
7621;SDS011;3852;52.284;8.032;2022-08-02T00:40:29;5.60;;;3.87;;
7621;SDS011;3852;52.284;8.032;2022-08-02T00:42:59;6.80;;;3.93;;
7621;SDS011;3852;52.284;8.032;2022-08-02T00:45:32;5.40;;;4.33;;
7621;SDS011;3852;52.284;8.032;2022-08-02T00:48:00;5.13;;;4.40;;
7621;SDS011;3852;52.284;8.032;2022-08-02T00:50:26;5.63;;;4.00;;
7621;SDS011;3852;52.284;8.032;2022-08-02T00:52:52;7.33;;;4.23;;
7621;SDS011;3852;52.284;8.032;2022-08-02T00:55:19;6.07;;;4.27;;
7621;SDS011;3852;52.284;8.032;2022-08-02T00:57:45;4.63;;;4.20;;
7621;SDS011;3852;52.284;8.032;2022-08-02T01:00:11;7.10;;;4.37;;
7621;SDS011;3852;52.284;8.032;2022-08-02T01:02:38;4.53;;;3.93;;
7621;SDS011;3852;52.284;8.032;2022-08-02T01:05:04;7.67;;;4.40;;
7621;SDS011;3852;52.284;8.032;2022-08-02T01:07:30;7.07;;;4.60;;
7621;SDS011;3852;52.284;8.032;2022-08-02T01:09:56;7.87;;;4.90;;
7621;SDS011;3852;52.284;8.032;2022-08-02T01:12:22;5.27;;;4.70;;
7621;SDS011;3852;52.284;8.032;2022-08-02T01:14:49;5.97;;;4.00;;
7621;SDS011;3852;52.284;8.032;2022-08-02T01:29:32;7.93;;;4.30;;
7621;SDS011;3852;52.284;8.032;2022-08-02T01:32:09;5.73;;;4.30;;
7621;SDS011;3852;52.284;8.032;2022-08-02T01:39:47;6.90;;;4.40;;
7621;SDS011;3852;52.284;8.032;2022-08-02T01:42:20;4.77;;;4.10;;
7621;SDS011;3852;52.284;8.032;2022-08-02T01:44:49;5.83;;;4.40;;
7621;SDS011;3852;52.284;8.032;2022-08-02T01:47:19;5.70;;;4.50;;
7621;SDS011;3852;52.284;8.032;2022-08-02T01:49:52;5.93;;;4.90;;
7621;SDS011;3852;52.284;8.032;2022-08-02T01:52:22;6.50;;;5.10;;
7621;SDS011;3852;52.284;8.032;2022-08-02T01:55:11;5.30;;;4.63;;
7621;SDS011;3852;52.284;8.032;2022-08-02T01:57:50;6.60;;;4.57;;
7621;SDS011;3852;52.284;8.032;2022-08-02T02:00:22;7.40;;;4.77;;
7621;SDS011;3852;52.284;8.032;2022-08-02T02:02:51;9.37;;;5.13;;
7621;SDS011;3852;52.284;8.032;2022-08-02T02:05:20;7.97;;;4.97;;
7621;SDS011;3852;52.284;8.032;2022-08-02T02:07:50;10.07;;;5.20;;
7621;SDS011;3852;52.284;8.032;2022-08-02T02:10:28;7.60;;;5.03;;
7621;SDS011;3852;52.284;8.032;2022-08-02T02:12:57;8.03;;;5.37;;
7621;SDS011;3852;52.284;8.032;2022-08-02T02:15:28;6.27;;;5.07;;
7621;SDS011;3852;52.284;8.032;2022-08-02T02:17:56;8.07;;;5.13;;
7621;SDS011;3852;52.284;8.032;2022-08-02T02:20:22;8.87;;;5.20;;
7621;SDS011;3852;52.284;8.032;2022-08-02T02:22:49;7.17;;;4.93;;
7621;SDS011;3852;52.284;8.032;2022-08-02T02:25:17;6.60;;;5.27;;
7621;SDS011;3852;52.284;8.032;2022-08-02T02:27:47;5.90;;;4.90;;
7621;SDS011;3852;52.284;8.032;2022-08-02T02:30:30;7.13;;;4.53;;
7621;SDS011;3852;52.284;8.032;2022-08-02T02:32:58;7.50;;;5.50;;
7621;SDS011;3852;52.284;8.032;2022-08-02T02:35:28;6.53;;;5.30;;
7621;SDS011;3852;52.284;8.032;2022-08-02T02:37:58;7.13;;;5.10;;
7621;SDS011;3852;52.284;8.032;2022-08-02T02:40:27;5.57;;;4.83;;
7621;SDS011;3852;52.284;8.032;2022-08-02T02:42:55;6.97;;;5.33;;
7621;SDS011;3852;52.284;8.032;2022-08-02T02:45:23;6.37;;;5.70;;
7621;SDS011;3852;52.284;8.032;2022-08-02T02:47:50;8.27;;;5.60;;
7621;SDS011;3852;52.284;8.032;2022-08-02T02:50:17;7.00;;;5.23;;
7621;SDS011;3852;52.284;8.032;2022-08-02T02:52:47;9.10;;;6.40;;
7621;SDS011;3852;52.284;8.032;2022-08-02T02:55:16;9.43;;;5.50;;
7621;SDS011;3852;52.284;8.032;2022-08-02T02:57:43;9.73;;;5.80;;
7621;SDS011;3852;52.284;8.032;2022-08-02T03:00:10;10.30;;;5.40;;
7621;SDS011;3852;52.284;8.032;2022-08-02T03:02:39;6.03;;;5.40;;
7621;SDS011;3852;52.284;8.032;2022-08-02T03:05:08;7.27;;;5.37;;
7621;SDS011;3852;52.284;8.032;2022-08-02T03:07:36;6.77;;;5.43;;
7621;SDS011;3852;52.284;8.032;2022-08-02T03:10:03;6.60;;;5.13;;
7621;SDS011;3852;52.284;8.032;2022-08-02T03:12:31;7.90;;;5.93;;
7621;SDS011;3852;52.284;8.032;2022-08-02T03:15:03;7.07;;;5.73;;
7621;SDS011;3852;52.284;8.032;2022-08-02T03:17:39;10.93;;;6.20;;
7621;SDS011;3852;52.284;8.032;2022-08-02T03:20:08;7.33;;;5.57;;
7621;SDS011;3852;52.284;8.032;2022-08-02T03:22:41;11.93;;;6.00;;
7621;SDS011;3852;52.284;8.032;2022-08-02T03:25:12;7.43;;;5.47;;
7621;SDS011;3852;52.284;8.032;2022-08-02T03:27:39;8.50;;;5.80;;
7621;SDS011;3852;52.284;8.032;2022-08-02T03:30:06;7.63;;;6.00;;
7621;SDS011;3852;52.284;8.032;2022-08-02T03:32:35;8.40;;;6.03;;
7621;SDS011;3852;52.284;8.032;2022-08-02T03:35:05;7.87;;;5.43;;
7621;SDS011;3852;52.284;8.032;2022-08-02T03:37:35;10.10;;;6.30;;
7621;SDS011;3852;52.284;8.032;2022-08-02T03:40:02;9.37;;;5.53;;
7621;SDS011;3852;52.284;8.032;2022-08-02T03:42:32;8.50;;;6.23;;
7621;SDS011;3852;52.284;8.032;2022-08-02T03:44:58;12.73;;;6.57;;
7621;SDS011;3852;52.284;8.032;2022-08-02T03:47:26;7.80;;;5.57;;
7621;SDS011;3852;52.284;8.032;2022-08-02T03:49:53;9.00;;;6.17;;
7621;SDS011;3852;52.284;8.032;2022-08-02T03:52:20;9.17;;;6.03;;
7621;SDS011;3852;52.284;8.032;2022-08-02T03:54:48;9.47;;;6.20;;
7621;SDS011;3852;52.284;8.032;2022-08-02T03:57:14;8.57;;;6.23;;
7621;SDS011;3852;52.284;8.032;2022-08-02T03:59:41;7.30;;;5.67;;
7621;SDS011;3852;52.284;8.032;2022-08-02T04:02:09;8.30;;;5.90;;
7621;SDS011;3852;52.284;8.032;2022-08-02T04:04:36;8.97;;;6.03;;
7621;SDS011;3852;52.284;8.032;2022-08-02T04:07:02;6.83;;;5.70;;
7621;SDS011;3852;52.284;8.032;2022-08-02T04:09:28;8.53;;;5.63;;
7621;SDS011;3852;52.284;8.032;2022-08-02T04:11:54;9.03;;;6.03;;
7621;SDS011;3852;52.284;8.032;2022-08-02T04:14:20;7.80;;;5.77;;
7621;SDS011;3852;52.284;8.032;2022-08-02T04:16:49;7.63;;;5.60;;
7621;SDS011;3852;52.284;8.032;2022-08-02T04:21:58;7.37;;;6.03;;
7621;SDS011;3852;52.284;8.032;2022-08-02T04:24:34;11.30;;;5.87;;
7621;SDS011;3852;52.284;8.032;2022-08-02T04:27:04;9.10;;;6.70;;
7621;SDS011;3852;52.284;8.032;2022-08-02T04:29:30;8.93;;;7.47;;
7621;SDS011;3852;52.284;8.032;2022-08-02T04:31:57;8.47;;;6.57;;
7621;SDS011;3852;52.284;8.032;2022-08-02T04:34:23;7.70;;;6.83;;
7621;SDS011;3852;52.284;8.032;2022-08-02T04:36:50;8.20;;;7.40;;
7621;SDS011;3852;52.284;8.032;2022-08-02T04:39:16;13.43;;;7.83;;
7621;SDS011;3852;52.284;8.032;2022-08-02T04:41:43;8.27;;;7.17;;
7621;SDS011;3852;52.284;8.032;2022-08-02T04:44:11;10.63;;;7.37;;
7621;SDS011;3852;52.284;8.032;2022-08-02T04:46:38;7.63;;;6.60;;
7621;SDS011;3852;52.284;8.032;2022-08-02T04:49:05;8.67;;;7.07;;
7621;SDS011;3852;52.284;8.032;2022-08-02T04:51:35;9.23;;;6.47;;
7621;SDS011;3852;52.284;8.032;2022-08-02T04:54:05;11.70;;;6.90;;
7621;SDS011;3852;52.284;8.032;2022-08-02T04:56:32;8.20;;;7.40;;
7621;SDS011;3852;52.284;8.032;2022-08-02T04:58:58;10.43;;;7.37;;
7621;SDS011;3852;52.284;8.032;2022-08-02T05:01:24;11.07;;;6.77;;
7621;SDS011;3852;52.284;8.032;2022-08-02T05:03:49;11.57;;;7.00;;
7621;SDS011;3852;52.284;8.032;2022-08-02T05:06:15;9.57;;;6.23;;
7621;SDS011;3852;52.284;8.032;2022-08-02T05:08:43;9.27;;;5.07;;
7621;SDS011;3852;52.284;8.032;2022-08-02T05:11:13;7.97;;;5.57;;
7621;SDS011;3852;52.284;8.032;2022-08-02T05:13:41;7.50;;;6.03;;
7621;SDS011;3852;52.284;8.032;2022-08-02T05:18:36;7.80;;;5.20;;
7621;SDS011;3852;52.284;8.032;2022-08-02T05:21:02;7.00;;;5.40;;
7621;SDS011;3852;52.284;8.032;2022-08-02T05:23:28;8.20;;;5.53;;
7621;SDS011;3852;52.284;8.032;2022-08-02T05:25:54;7.90;;;5.73;;
7621;SDS011;3852;52.284;8.032;2022-08-02T05:28:20;8.40;;;6.30;;
7621;SDS011;3852;52.284;8.032;2022-08-02T05:30:46;8.57;;;5.40;;
7621;SDS011;3852;52.284;8.032;2022-08-02T05:33:11;8.13;;;5.87;;
7621;SDS011;3852;52.284;8.032;2022-08-02T05:35:37;6.50;;;5.67;;
7621;SDS011;3852;52.284;8.032;2022-08-02T05:38:03;7.73;;;5.70;;
7621;SDS011;3852;52.284;8.032;2022-08-02T05:40:29;7.60;;;5.53;;
7621;SDS011;3852;52.284;8.032;2022-08-02T05:42:54;7.70;;;5.50;;
7621;SDS011;3852;52.284;8.032;2022-08-02T05:45:21;7.80;;;4.90;;
7621;SDS011;3852;52.284;8.032;2022-08-02T05:47:47;9.03;;;5.70;;
7621;SDS011;3852;52.284;8.032;2022-08-02T05:50:13;9.73;;;5.90;;
7621;SDS011;3852;52.284;8.032;2022-08-02T05:55:25;7.47;;;5.80;;
7621;SDS011;3852;52.284;8.032;2022-08-02T05:58:01;5.87;;;5.10;;
7621;SDS011;3852;52.284;8.032;2022-08-02T06:00:32;6.90;;;5.70;;
7621;SDS011;3852;52.284;8.032;2022-08-02T06:06:04;8.30;;;5.97;;
7621;SDS011;3852;52.284;8.032;2022-08-02T06:08:44;6.00;;;5.40;;
7621;SDS011;3852;52.284;8.032;2022-08-02T06:11:16;8.17;;;5.90;;
7621;SDS011;3852;52.284;8.032;2022-08-02T06:13:46;10.60;;;6.00;;
7621;SDS011;3852;52.284;8.032;2022-08-02T06:16:13;8.17;;;5.37;;
7621;SDS011;3852;52.284;8.032;2022-08-02T06:18:39;6.37;;;5.17;;
7621;SDS011;3852;52.284;8.032;2022-08-02T06:21:06;10.17;;;4.90;;
7621;SDS011;3852;52.284;8.032;2022-08-02T06:23:34;6.40;;;4.90;;
7621;SDS011;3852;52.284;8.032;2022-08-02T06:26:06;7.00;;;5.00;;
7621;SDS011;3852;52.284;8.032;2022-08-02T06:28:36;9.63;;;5.30;;
7621;SDS011;3852;52.284;8.032;2022-08-02T06:31:06;5.60;;;4.60;;
7621;SDS011;3852;52.284;8.032;2022-08-02T06:33:32;6.43;;;4.83;;
7621;SDS011;3852;52.284;8.032;2022-08-02T06:36:09;8.03;;;5.13;;
7621;SDS011;3852;52.284;8.032;2022-08-02T06:38:43;7.23;;;5.20;;
7621;SDS011;3852;52.284;8.032;2022-08-02T06:41:19;6.00;;;4.63;;
7621;SDS011;3852;52.284;8.032;2022-08-02T06:46:26;6.50;;;4.43;;
7621;SDS011;3852;52.284;8.032;2022-08-02T06:48:52;7.10;;;4.93;;
7621;SDS011;3852;52.284;8.032;2022-08-02T06:51:18;9.60;;;4.90;;
7621;SDS011;3852;52.284;8.032;2022-08-02T06:53:45;6.70;;;4.83;;
7621;SDS011;3852;52.284;8.032;2022-08-02T06:56:11;8.77;;;5.00;;
7621;SDS011;3852;52.284;8.032;2022-08-02T06:58:37;7.80;;;4.53;;
7621;SDS011;3852;52.284;8.032;2022-08-02T07:01:04;9.87;;;4.70;;
7621;SDS011;3852;52.284;8.032;2022-08-02T07:03:32;9.00;;;4.57;;
7621;SDS011;3852;52.284;8.032;2022-08-02T07:05:58;6.83;;;4.30;;
7621;SDS011;3852;52.284;8.032;2022-08-02T07:08:24;8.90;;;3.93;;
7621;SDS011;3852;52.284;8.032;2022-08-02T07:10:56;6.43;;;3.83;;
7621;SDS011;3852;52.284;8.032;2022-08-02T07:13:26;7.00;;;4.00;;
7621;SDS011;3852;52.284;8.032;2022-08-02T07:15:53;6.97;;;3.83;;
7621;SDS011;3852;52.284;8.032;2022-08-02T07:18:19;7.57;;;4.07;;
7621;SDS011;3852;52.284;8.032;2022-08-02T07:20:46;6.47;;;3.90;;
7621;SDS011;3852;52.284;8.032;2022-08-02T07:23:12;6.37;;;4.10;;
7621;SDS011;3852;52.284;8.032;2022-08-02T07:25:38;6.27;;;3.70;;
7621;SDS011;3852;52.284;8.032;2022-08-02T07:28:04;8.40;;;3.70;;
7621;SDS011;3852;52.284;8.032;2022-08-02T07:30:30;6.33;;;3.23;;
7621;SDS011;3852;52.284;8.032;2022-08-02T07:32:57;8.50;;;4.30;;
7621;SDS011;3852;52.284;8.032;2022-08-02T07:35:24;6.03;;;3.70;;
7621;SDS011;3852;52.284;8.032;2022-08-02T07:37:50;7.47;;;4.00;;
7621;SDS011;3852;52.284;8.032;2022-08-02T07:40:16;8.83;;;3.67;;
7621;SDS011;3852;52.284;8.032;2022-08-02T07:42:42;8.23;;;3.77;;
7621;SDS011;3852;52.284;8.032;2022-08-02T07:45:08;5.97;;;4.37;;
7621;SDS011;3852;52.284;8.032;2022-08-02T07:47:35;6.90;;;4.33;;
7621;SDS011;3852;52.284;8.032;2022-08-02T07:50:03;6.90;;;3.80;;
7621;SDS011;3852;52.284;8.032;2022-08-02T07:52:29;7.80;;;3.83;;
7621;SDS011;3852;52.284;8.032;2022-08-02T07:54:55;6.73;;;3.53;;
7621;SDS011;3852;52.284;8.032;2022-08-02T07:57:21;7.50;;;5.13;;
7621;SDS011;3852;52.284;8.032;2022-08-02T07:59:47;7.77;;;3.67;;
7621;SDS011;3852;52.284;8.032;2022-08-02T08:02:13;6.87;;;3.50;;
7621;SDS011;3852;52.284;8.032;2022-08-02T08:04:39;5.20;;;3.43;;
7621;SDS011;3852;52.284;8.032;2022-08-02T08:07:05;7.60;;;3.70;;
7621;SDS011;3852;52.284;8.032;2022-08-02T08:09:34;6.23;;;3.67;;
7621;SDS011;3852;52.284;8.032;2022-08-02T08:12:09;4.83;;;3.33;;
7621;SDS011;3852;52.284;8.032;2022-08-02T08:14:36;5.63;;;3.33;;
7621;SDS011;3852;52.284;8.032;2022-08-02T08:17:03;4.87;;;3.20;;
7621;SDS011;3852;52.284;8.032;2022-08-02T08:19:33;8.20;;;3.50;;
7621;SDS011;3852;52.284;8.032;2022-08-02T08:21:59;8.03;;;3.83;;
7621;SDS011;3852;52.284;8.032;2022-08-02T08:24:28;7.87;;;3.27;;
7621;SDS011;3852;52.284;8.032;2022-08-02T08:26:55;6.97;;;3.00;;
7621;SDS011;3852;52.284;8.032;2022-08-02T08:29:21;3.40;;;3.10;;
7621;SDS011;3852;52.284;8.032;2022-08-02T08:31:47;6.53;;;3.30;;
7621;SDS011;3852;52.284;8.032;2022-08-02T08:34:13;6.80;;;3.53;;
7621;SDS011;3852;52.284;8.032;2022-08-02T08:36:40;6.70;;;2.80;;
7621;SDS011;3852;52.284;8.032;2022-08-02T08:39:06;6.23;;;3.00;;
7621;SDS011;3852;52.284;8.032;2022-08-02T08:41:33;6.53;;;3.30;;
7621;SDS011;3852;52.284;8.032;2022-08-02T08:44:00;4.47;;;2.83;;
7621;SDS011;3852;52.284;8.032;2022-08-02T08:46:27;7.00;;;3.20;;
7621;SDS011;3852;52.284;8.032;2022-08-02T08:48:57;4.97;;;3.47;;
7621;SDS011;3852;52.284;8.032;2022-08-02T08:51:59;6.33;;;3.80;;
7621;SDS011;3852;52.284;8.032;2022-08-02T08:54:29;4.77;;;3.10;;
7621;SDS011;3852;52.284;8.032;2022-08-02T08:56:58;4.90;;;2.70;;
7621;SDS011;3852;52.284;8.032;2022-08-02T08:59:26;4.93;;;3.10;;
7621;SDS011;3852;52.284;8.032;2022-08-02T09:01:53;4.40;;;2.70;;
7621;SDS011;3852;52.284;8.032;2022-08-02T09:04:20;3.90;;;3.00;;
7621;SDS011;3852;52.284;8.032;2022-08-02T09:06:46;5.60;;;3.37;;
7621;SDS011;3852;52.284;8.032;2022-08-02T09:09:11;4.53;;;2.97;;
7621;SDS011;3852;52.284;8.032;2022-08-02T09:11:37;4.33;;;3.30;;
7621;SDS011;3852;52.284;8.032;2022-08-02T09:14:03;4.27;;;2.50;;
7621;SDS011;3852;52.284;8.032;2022-08-02T09:16:36;3.33;;;2.40;;
7621;SDS011;3852;52.284;8.032;2022-08-02T09:21:44;5.50;;;3.00;;
7621;SDS011;3852;52.284;8.032;2022-08-02T09:24:29;7.33;;;3.33;;
7621;SDS011;3852;52.284;8.032;2022-08-02T09:27:16;5.10;;;3.10;;
7621;SDS011;3852;52.284;8.032;2022-08-02T09:29:48;3.97;;;2.60;;
7621;SDS011;3852;52.284;8.032;2022-08-02T09:32:16;4.63;;;2.80;;
7621;SDS011;3852;52.284;8.032;2022-08-02T09:37:29;4.50;;;2.60;;
7621;SDS011;3852;52.284;8.032;2022-08-02T09:39:56;4.23;;;2.40;;
7621;SDS011;3852;52.284;8.032;2022-08-02T09:42:29;5.17;;;2.60;;
7621;SDS011;3852;52.284;8.032;2022-08-02T09:44:56;4.27;;;3.20;;
7621;SDS011;3852;52.284;8.032;2022-08-02T09:47:24;3.80;;;2.77;;
7621;SDS011;3852;52.284;8.032;2022-08-02T09:49:55;6.07;;;2.40;;
7621;SDS011;3852;52.284;8.032;2022-08-02T09:52:26;3.67;;;2.80;;
7621;SDS011;3852;52.284;8.032;2022-08-02T09:54:54;3.43;;;2.50;;
7621;SDS011;3852;52.284;8.032;2022-08-02T09:57:28;3.40;;;3.03;;
7621;SDS011;3852;52.284;8.032;2022-08-02T09:59:57;6.03;;;3.00;;
7621;SDS011;3852;52.284;8.032;2022-08-02T10:02:24;7.60;;;6.50;;
7621;SDS011;3852;52.284;8.032;2022-08-02T10:04:50;3.17;;;2.80;;
7621;SDS011;3852;52.284;8.032;2022-08-02T10:07:19;2.83;;;2.53;;
7621;SDS011;3852;52.284;8.032;2022-08-02T10:09:47;4.27;;;3.00;;
7621;SDS011;3852;52.284;8.032;2022-08-02T10:12:13;3.40;;;2.70;;
7621;SDS011;3852;52.284;8.032;2022-08-02T10:14:42;4.07;;;2.90;;
7621;SDS011;3852;52.284;8.032;2022-08-02T10:17:09;4.37;;;2.57;;
7621;SDS011;3852;52.284;8.032;2022-08-02T10:19:37;2.83;;;2.63;;
7621;SDS011;3852;52.284;8.032;2022-08-02T10:22:04;5.20;;;2.90;;
7621;SDS011;3852;52.284;8.032;2022-08-02T10:24:35;2.93;;;2.63;;
7621;SDS011;3852;52.284;8.032;2022-08-02T10:27:03;4.00;;;2.90;;
7621;SDS011;3852;52.284;8.032;2022-08-02T10:29:36;3.50;;;2.70;;
7621;SDS011;3852;52.284;8.032;2022-08-02T10:32:04;3.53;;;2.70;;
7621;SDS011;3852;52.284;8.032;2022-08-02T10:34:44;2.53;;;2.23;;
7621;SDS011;3852;52.284;8.032;2022-08-02T10:37:17;4.13;;;2.80;;
7621;SDS011;3852;52.284;8.032;2022-08-02T10:39:44;3.17;;;2.83;;
7621;SDS011;3852;52.284;8.032;2022-08-02T10:42:10;4.60;;;2.53;;
7621;SDS011;3852;52.284;8.032;2022-08-02T10:44:38;3.63;;;2.20;;
7621;SDS011;3852;52.284;8.032;2022-08-02T10:49:54;3.23;;;2.23;;
7621;SDS011;3852;52.284;8.032;2022-08-02T10:52:29;5.33;;;2.70;;
7621;SDS011;3852;52.284;8.032;2022-08-02T10:54:59;4.33;;;2.77;;
7621;SDS011;3852;52.284;8.032;2022-08-02T10:57:36;5.93;;;3.07;;
7621;SDS011;3852;52.284;8.032;2022-08-02T11:02:41;2.50;;;2.30;;
7621;SDS011;3852;52.284;8.032;2022-08-02T11:07:51;7.37;;;2.90;;
7621;SDS011;3852;52.284;8.032;2022-08-02T11:10:36;2.60;;;2.40;;
7621;SDS011;3852;52.284;8.032;2022-08-02T11:13:05;2.83;;;2.60;;
7621;SDS011;3852;52.284;8.032;2022-08-02T11:21:26;3.37;;;3.07;;
7621;SDS011;3852;52.284;8.032;2022-08-02T11:24:43;4.83;;;2.53;;
7621;SDS011;3852;52.284;8.032;2022-08-02T11:26:55;3.50;;;2.70;;
7621;SDS011;3852;52.284;8.032;2022-08-02T11:29:30;3.07;;;2.77;;
7621;SDS011;3852;52.284;8.032;2022-08-02T11:32:05;5.17;;;2.63;;
7621;SDS011;3852;52.284;8.032;2022-08-02T11:34:33;3.30;;;3.00;;
7621;SDS011;3852;52.284;8.032;2022-08-02T11:36:59;3.27;;;3.07;;
7621;SDS011;3852;52.284;8.032;2022-08-02T11:39:25;2.87;;;2.67;;
7621;SDS011;3852;52.284;8.032;2022-08-02T11:41:52;3.13;;;2.77;;
7621;SDS011;3852;52.284;8.032;2022-08-02T11:44:25;3.57;;;3.27;;
7621;SDS011;3852;52.284;8.032;2022-08-02T11:46:54;5.27;;;2.73;;
7621;SDS011;3852;52.284;8.032;2022-08-02T11:49:26;3.13;;;2.80;;
7621;SDS011;3852;52.284;8.032;2022-08-02T11:52:00;2.87;;;2.30;;
7621;SDS011;3852;52.284;8.032;2022-08-02T11:54:32;5.13;;;3.00;;
7621;SDS011;3852;52.284;8.032;2022-08-02T11:59:55;3.63;;;3.00;;
7621;SDS011;3852;52.284;8.032;2022-08-02T12:02:25;5.10;;;2.63;;
7621;SDS011;3852;52.284;8.032;2022-08-02T12:04:57;3.30;;;3.10;;
7621;SDS011;3852;52.284;8.032;2022-08-02T12:07:29;3.63;;;2.90;;
7621;SDS011;3852;52.284;8.032;2022-08-02T12:12:32;4.03;;;3.43;;
7621;SDS011;3852;52.284;8.032;2022-08-02T12:15:10;3.67;;;3.37;;
7621;SDS011;3852;52.284;8.032;2022-08-02T12:17:39;4.27;;;3.13;;
7621;SDS011;3852;52.284;8.032;2022-08-02T12:20:34;4.40;;;2.60;;
7621;SDS011;3852;52.284;8.032;2022-08-02T12:23:01;3.50;;;2.80;;
7621;SDS011;3852;52.284;8.032;2022-08-02T12:25:28;3.23;;;3.03;;
7621;SDS011;3852;52.284;8.032;2022-08-02T12:28:11;4.30;;;2.83;;
7621;SDS011;3852;52.284;8.032;2022-08-02T12:30:55;3.67;;;2.87;;
7621;SDS011;3852;52.284;8.032;2022-08-02T12:33:24;3.40;;;3.10;;
7621;SDS011;3852;52.284;8.032;2022-08-02T12:36:19;3.67;;;3.40;;
7621;SDS011;3852;52.284;8.032;2022-08-02T12:38:54;8.00;;;3.00;;
7621;SDS011;3852;52.284;8.032;2022-08-02T12:41:26;3.20;;;2.93;;
7621;SDS011;3852;52.284;8.032;2022-08-02T12:43:53;3.90;;;3.60;;
7621;SDS011;3852;52.284;8.032;2022-08-02T12:46:22;3.10;;;2.90;;
7621;SDS011;3852;52.284;8.032;2022-08-02T12:48:49;4.87;;;3.00;;
7621;SDS011;3852;52.284;8.032;2022-08-02T12:53:53;3.10;;;2.57;;
7621;SDS011;3852;52.284;8.032;2022-08-02T12:56:36;2.90;;;2.63;;
7621;SDS011;3852;52.284;8.032;2022-08-02T12:59:04;3.97;;;2.57;;
7621;SDS011;3852;52.284;8.032;2022-08-02T13:01:31;2.73;;;2.53;;
7621;SDS011;3852;52.284;8.032;2022-08-02T13:03:57;2.90;;;2.70;;
7621;SDS011;3852;52.284;8.032;2022-08-02T13:06:23;4.27;;;3.00;;
7621;SDS011;3852;52.284;8.032;2022-08-02T13:08:49;3.30;;;3.00;;
7621;SDS011;3852;52.284;8.032;2022-08-02T13:11:17;2.80;;;2.70;;
7621;SDS011;3852;52.284;8.032;2022-08-02T13:13:43;3.13;;;2.70;;
7621;SDS011;3852;52.284;8.032;2022-08-02T13:16:09;3.23;;;2.90;;
7621;SDS011;3852;52.284;8.032;2022-08-02T13:18:35;3.40;;;3.10;;
7621;SDS011;3852;52.284;8.032;2022-08-02T13:21:01;4.23;;;3.13;;
7621;SDS011;3852;52.284;8.032;2022-08-02T13:23:31;3.30;;;3.10;;
7621;SDS011;3852;52.284;8.032;2022-08-02T13:25:59;3.57;;;3.33;;
7621;SDS011;3852;52.284;8.032;2022-08-02T13:28:25;3.67;;;3.37;;
7621;SDS011;3852;52.284;8.032;2022-08-02T13:30:51;4.37;;;3.93;;
7621;SDS011;3852;52.284;8.032;2022-08-02T13:33:17;3.83;;;3.40;;
7621;SDS011;3852;52.284;8.032;2022-08-02T13:35:44;5.53;;;3.30;;
7621;SDS011;3852;52.284;8.032;2022-08-02T13:38:10;3.40;;;3.10;;
7621;SDS011;3852;52.284;8.032;2022-08-02T13:40:36;5.70;;;3.43;;
7621;SDS011;3852;52.284;8.032;2022-08-02T13:43:22;5.03;;;3.70;;
7621;SDS011;3852;52.284;8.032;2022-08-02T13:45:47;8.57;;;3.90;;
7621;SDS011;3852;52.284;8.032;2022-08-02T13:48:13;3.83;;;3.50;;
7621;SDS011;3852;52.284;8.032;2022-08-02T13:50:39;4.33;;;3.20;;
7621;SDS011;3852;52.284;8.032;2022-08-02T13:53:05;3.57;;;3.30;;
7621;SDS011;3852;52.284;8.032;2022-08-02T13:55:31;3.30;;;3.10;;
7621;SDS011;3852;52.284;8.032;2022-08-02T13:57:56;3.83;;;2.87;;
7621;SDS011;3852;52.284;8.032;2022-08-02T14:00:22;3.80;;;2.80;;
7621;SDS011;3852;52.284;8.032;2022-08-02T14:02:49;3.07;;;2.77;;
7621;SDS011;3852;52.284;8.032;2022-08-02T14:05:14;4.03;;;2.80;;
7621;SDS011;3852;52.284;8.032;2022-08-02T14:07:40;3.27;;;2.97;;
7621;SDS011;3852;52.284;8.032;2022-08-02T14:10:06;3.30;;;3.00;;
7621;SDS011;3852;52.284;8.032;2022-08-02T14:12:32;3.20;;;2.63;;
7621;SDS011;3852;52.284;8.032;2022-08-02T14:14:58;2.80;;;2.60;;
7621;SDS011;3852;52.284;8.032;2022-08-02T14:17:24;2.80;;;2.60;;
7621;SDS011;3852;52.284;8.032;2022-08-02T14:19:50;3.67;;;2.60;;
7621;SDS011;3852;52.284;8.032;2022-08-02T14:22:15;2.73;;;2.53;;
7621;SDS011;3852;52.284;8.032;2022-08-02T14:24:44;4.10;;;3.03;;
7621;SDS011;3852;52.284;8.032;2022-08-02T14:27:09;3.33;;;2.77;;
7621;SDS011;3852;52.284;8.032;2022-08-02T14:29:35;2.67;;;2.57;;
7621;SDS011;3852;52.284;8.032;2022-08-02T14:32:01;3.00;;;2.80;;
7621;SDS011;3852;52.284;8.032;2022-08-02T14:34:27;2.53;;;2.43;;
7621;SDS011;3852;52.284;8.032;2022-08-02T14:36:56;3.00;;;2.80;;
7621;SDS011;3852;52.284;8.032;2022-08-02T14:39:22;3.10;;;2.80;;
7621;SDS011;3852;52.284;8.032;2022-08-02T14:41:48;2.70;;;2.50;;
7621;SDS011;3852;52.284;8.032;2022-08-02T14:44:14;3.17;;;2.97;;
7621;SDS011;3852;52.284;8.032;2022-08-02T14:46:39;2.73;;;2.53;;
7621;SDS011;3852;52.284;8.032;2022-08-02T14:49:06;2.63;;;2.47;;
7621;SDS011;3852;52.284;8.032;2022-08-02T14:51:34;3.07;;;2.80;;
7621;SDS011;3852;52.284;8.032;2022-08-02T14:54:03;5.73;;;2.50;;
7621;SDS011;3852;52.284;8.032;2022-08-02T14:56:31;2.63;;;2.43;;
7621;SDS011;3852;52.284;8.032;2022-08-02T14:58:57;3.27;;;2.47;;
7621;SDS011;3852;52.284;8.032;2022-08-02T15:01:23;2.33;;;2.23;;
7621;SDS011;3852;52.284;8.032;2022-08-02T15:03:49;2.90;;;2.70;;
7621;SDS011;3852;52.284;8.032;2022-08-02T15:06:15;3.90;;;2.60;;
7621;SDS011;3852;52.284;8.032;2022-08-02T15:08:42;2.60;;;2.40;;
7621;SDS011;3852;52.284;8.032;2022-08-02T15:11:08;3.37;;;2.40;;
7621;SDS011;3852;52.284;8.032;2022-08-02T15:13:34;2.60;;;2.40;;
7621;SDS011;3852;52.284;8.032;2022-08-02T15:16:00;2.50;;;2.30;;
7621;SDS011;3852;52.284;8.032;2022-08-02T15:18:26;2.60;;;2.40;;
7621;SDS011;3852;52.284;8.032;2022-08-02T15:20:52;2.47;;;2.37;;
7621;SDS011;3852;52.284;8.032;2022-08-02T15:23:18;3.80;;;2.20;;
7621;SDS011;3852;52.284;8.032;2022-08-02T15:25:44;2.20;;;2.10;;
7621;SDS011;3852;52.284;8.032;2022-08-02T15:28:10;3.37;;;2.10;;
7621;SDS011;3852;52.284;8.032;2022-08-02T15:30:36;2.10;;;2.00;;
7621;SDS011;3852;52.284;8.032;2022-08-02T15:33:03;2.80;;;2.20;;
7621;SDS011;3852;52.284;8.032;2022-08-02T15:35:31;2.23;;;2.13;;
7621;SDS011;3852;52.284;8.032;2022-08-02T15:37:57;2.57;;;2.37;;
7621;SDS011;3852;52.284;8.032;2022-08-02T15:40:23;2.40;;;2.30;;
7621;SDS011;3852;52.284;8.032;2022-08-02T15:42:50;2.40;;;2.30;;
7621;SDS011;3852;52.284;8.032;2022-08-02T15:45:16;3.50;;;2.50;;
7621;SDS011;3852;52.284;8.032;2022-08-02T15:47:42;2.60;;;2.40;;
7621;SDS011;3852;52.284;8.032;2022-08-02T15:50:09;3.17;;;2.50;;
7621;SDS011;3852;52.284;8.032;2022-08-02T15:52:35;2.63;;;2.30;;
7621;SDS011;3852;52.284;8.032;2022-08-02T15:55:01;2.20;;;2.00;;
7621;SDS011;3852;52.284;8.032;2022-08-02T15:57:27;2.97;;;2.60;;
7621;SDS011;3852;52.284;8.032;2022-08-02T15:59:53;2.47;;;2.23;;
7621;SDS011;3852;52.284;8.032;2022-08-02T16:02:19;2.63;;;2.10;;
7621;SDS011;3852;52.284;8.032;2022-08-02T16:04:46;2.30;;;2.10;;
7621;SDS011;3852;52.284;8.032;2022-08-02T16:07:12;2.30;;;2.10;;
7621;SDS011;3852;52.284;8.032;2022-08-02T16:09:38;2.27;;;2.10;;
7621;SDS011;3852;52.284;8.032;2022-08-02T16:12:04;2.90;;;2.40;;
7621;SDS011;3852;52.284;8.032;2022-08-02T16:14:31;2.47;;;2.30;;
7621;SDS011;3852;52.284;8.032;2022-08-02T16:16:57;4.50;;;2.40;;
7621;SDS011;3852;52.284;8.032;2022-08-02T16:19:24;9.80;;;5.93;;
7621;SDS011;3852;52.284;8.032;2022-08-02T16:21:50;32.20;;;19.83;;